sensor_id;sensor_type;location;lat;lon;timestamp;temperature;humidity
11067;DHT22;29763;50.904;5.530;2023-10-19T00:01:19;14.50;99.90
11067;DHT22;29763;50.904;5.530;2023-10-19T00:03:57;14.50;99.90
11067;DHT22;29763;50.904;5.530;2023-10-19T00:06:29;14.60;99.90
11067;DHT22;29763;50.904;5.530;2023-10-19T00:08:59;14.60;99.90
11067;DHT22;29763;50.904;5.530;2023-10-19T00:11:32;14.60;99.90
11067;DHT22;29763;50.904;5.530;2023-10-19T00:14:06;14.70;99.90
11067;DHT22;29763;50.904;5.530;2023-10-19T00:16:47;14.70;99.90
11067;DHT22;29763;50.904;5.530;2023-10-19T00:19:29;14.80;99.90
11067;DHT22;29763;50.904;5.530;2023-10-19T00:21:55;14.80;99.90
11067;DHT22;29763;50.904;5.530;2023-10-19T00:24:31;14.80;99.90
11067;DHT22;29763;50.904;5.530;2023-10-19T00:27:04;14.90;99.90
11067;DHT22;29763;50.904;5.530;2023-10-19T00:29:57;14.80;99.90
11067;DHT22;29763;50.904;5.530;2023-10-19T00:32:33;14.90;99.90
11067;DHT22;29763;50.904;5.530;2023-10-19T00:35:06;15.00;99.90
11067;DHT22;29763;50.904;5.530;2023-10-19T00:37:56;15.00;99.90
11067;DHT22;29763;50.904;5.530;2023-10-19T00:40:39;15.00;99.90
11067;DHT22;29763;50.904;5.530;2023-10-19T00:43:07;15.00;99.90
11067;DHT22;29763;50.904;5.530;2023-10-19T00:45:35;15.10;99.90
11067;DHT22;29763;50.904;5.530;2023-10-19T00:48:09;15.10;99.90
11067;DHT22;29763;50.904;5.530;2023-10-19T00:50:37;15.10;99.90
11067;DHT22;29763;50.904;5.530;2023-10-19T00:53:07;15.10;99.90
11067;DHT22;29763;50.904;5.530;2023-10-19T00:55:34;15.00;99.90
11067;DHT22;29763;50.904;5.530;2023-10-19T00:58:18;15.10;99.90
11067;DHT22;29763;50.904;5.530;2023-10-19T01:00:49;15.20;99.90
11067;DHT22;29763;50.904;5.530;2023-10-19T01:03:15;15.10;99.90
11067;DHT22;29763;50.904;5.530;2023-10-19T01:05:45;15.20;99.90
11067;DHT22;29763;50.904;5.530;2023-10-19T01:08:14;15.20;99.90
11067;DHT22;29763;50.904;5.530;2023-10-19T01:10:56;15.30;99.90
11067;DHT22;29763;50.904;5.530;2023-10-19T01:13:23;15.30;99.90
11067;DHT22;29763;50.904;5.530;2023-10-19T01:16:00;15.40;99.90
11067;DHT22;29763;50.904;5.530;2023-10-19T01:18:40;15.40;99.90
11067;DHT22;29763;50.904;5.530;2023-10-19T01:21:11;15.40;99.90
11067;DHT22;29763;50.904;5.530;2023-10-19T01:23:41;15.50;99.90
11067;DHT22;29763;50.904;5.530;2023-10-19T01:26:28;15.50;99.90
11067;DHT22;29763;50.904;5.530;2023-10-19T01:28:56;15.50;99.90
11067;DHT22;29763;50.904;5.530;2023-10-19T01:31:38;15.50;99.90
11067;DHT22;29763;50.904;5.530;2023-10-19T01:34:19;15.50;99.90
11067;DHT22;29763;50.904;5.530;2023-10-19T01:36:47;15.50;99.90
11067;DHT22;29763;50.904;5.530;2023-10-19T01:39:26;15.50;99.90
11067;DHT22;29763;50.904;5.530;2023-10-19T01:41:52;15.50;99.90
11067;DHT22;29763;50.904;5.530;2023-10-19T01:44:19;15.40;99.90
11067;DHT22;29763;50.904;5.530;2023-10-19T01:46:49;15.40;99.90
11067;DHT22;29763;50.904;5.530;2023-10-19T01:49:21;15.40;99.90
11067;DHT22;29763;50.904;5.530;2023-10-19T01:51:58;15.40;99.90
11067;DHT22;29763;50.904;5.530;2023-10-19T01:54:32;15.50;99.90
11067;DHT22;29763;50.904;5.530;2023-10-19T01:57:01;15.50;99.90
11067;DHT22;29763;50.904;5.530;2023-10-19T01:59:29;15.50;99.90
11067;DHT22;29763;50.904;5.530;2023-10-19T02:02:15;15.50;99.90
11067;DHT22;29763;50.904;5.530;2023-10-19T02:04:45;15.50;99.90
11067;DHT22;29763;50.904;5.530;2023-10-19T02:07:11;15.50;99.90
11067;DHT22;29763;50.904;5.530;2023-10-19T02:09:43;15.50;99.90
11067;DHT22;29763;50.904;5.530;2023-10-19T02:12:09;15.50;99.90
11067;DHT22;29763;50.904;5.530;2023-10-19T02:15:05;15.50;99.90
11067;DHT22;29763;50.904;5.530;2023-10-19T02:17:33;15.50;99.90
11067;DHT22;29763;50.904;5.530;2023-10-19T02:20:00;15.50;99.90
11067;DHT22;29763;50.904;5.530;2023-10-19T02:22:26;15.50;99.90
11067;DHT22;29763;50.904;5.530;2023-10-19T02:24:56;15.50;99.90
11067;DHT22;29763;50.904;5.530;2023-10-19T02:27:25;15.50;99.90
11067;DHT22;29763;50.904;5.530;2023-10-19T02:29:51;15.50;99.90
11067;DHT22;29763;50.904;5.530;2023-10-19T02:32:23;15.50;99.90
11067;DHT22;29763;50.904;5.530;2023-10-19T02:34:52;15.40;99.90
11067;DHT22;29763;50.904;5.530;2023-10-19T02:37:21;15.50;99.90
11067;DHT22;29763;50.904;5.530;2023-10-19T02:39:48;15.50;99.90
11067;DHT22;29763;50.904;5.530;2023-10-19T02:42:15;15.50;99.90
11067;DHT22;29763;50.904;5.530;2023-10-19T02:44:43;15.50;99.90
11067;DHT22;29763;50.904;5.530;2023-10-19T02:47:09;15.40;99.90
11067;DHT22;29763;50.904;5.530;2023-10-19T02:49:37;15.40;99.90
11067;DHT22;29763;50.904;5.530;2023-10-19T02:52:09;15.40;99.90
11067;DHT22;29763;50.904;5.530;2023-10-19T02:54:39;15.40;99.90
11067;DHT22;29763;50.904;5.530;2023-10-19T02:57:05;15.40;99.90
11067;DHT22;29763;50.904;5.530;2023-10-19T02:59:32;15.30;99.90
11067;DHT22;29763;50.904;5.530;2023-10-19T03:02:01;15.30;99.90
11067;DHT22;29763;50.904;5.530;2023-10-19T03:04:33;15.30;99.90
11067;DHT22;29763;50.904;5.530;2023-10-19T03:07:19;15.30;99.90
11067;DHT22;29763;50.904;5.530;2023-10-19T03:09:48;15.30;99.90
11067;DHT22;29763;50.904;5.530;2023-10-19T03:12:18;15.30;99.90
11067;DHT22;29763;50.904;5.530;2023-10-19T03:14:45;15.30;99.90
11067;DHT22;29763;50.904;5.530;2023-10-19T03:17:15;15.30;99.90
11067;DHT22;29763;50.904;5.530;2023-10-19T03:19:43;15.40;99.90
11067;DHT22;29763;50.904;5.530;2023-10-19T03:22:15;15.30;99.90
11067;DHT22;29763;50.904;5.530;2023-10-19T03:24:42;15.30;99.90
11067;DHT22;29763;50.904;5.530;2023-10-19T03:27:12;15.30;99.90
11067;DHT22;29763;50.904;5.530;2023-10-19T03:29:49;15.20;99.90
11067;DHT22;29763;50.904;5.530;2023-10-19T03:32:22;15.10;99.90
11067;DHT22;29763;50.904;5.530;2023-10-19T03:35:09;15.00;99.90
11067;DHT22;29763;50.904;5.530;2023-10-19T03:37:41;14.90;99.90
11067;DHT22;29763;50.904;5.530;2023-10-19T03:40:08;14.80;99.90
11067;DHT22;29763;50.904;5.530;2023-10-19T03:42:35;14.80;99.90
11067;DHT22;29763;50.904;5.530;2023-10-19T03:45:07;14.70;99.90
11067;DHT22;29763;50.904;5.530;2023-10-19T03:47:48;14.70;99.90
11067;DHT22;29763;50.904;5.530;2023-10-19T03:50:21;14.60;99.90
11067;DHT22;29763;50.904;5.530;2023-10-19T03:52:51;14.60;99.90
11067;DHT22;29763;50.904;5.530;2023-10-19T03:55:20;14.50;99.90
11067;DHT22;29763;50.904;5.530;2023-10-19T03:57:55;14.50;99.90
11067;DHT22;29763;50.904;5.530;2023-10-19T04:00:25;14.40;99.90
11067;DHT22;29763;50.904;5.530;2023-10-19T04:02:57;14.40;99.90
11067;DHT22;29763;50.904;5.530;2023-10-19T04:05:23;14.40;99.90
11067;DHT22;29763;50.904;5.530;2023-10-19T04:07:53;14.40;99.90
11067;DHT22;29763;50.904;5.530;2023-10-19T04:10:25;14.50;99.90
11067;DHT22;29763;50.904;5.530;2023-10-19T04:13:00;14.50;99.90
11067;DHT22;29763;50.904;5.530;2023-10-19T04:15:32;14.50;99.90
11067;DHT22;29763;50.904;5.530;2023-10-19T04:18:02;14.40;99.90
11067;DHT22;29763;50.904;5.530;2023-10-19T04:20:39;14.50;99.90
11067;DHT22;29763;50.904;5.530;2023-10-19T04:23:12;14.50;99.90
11067;DHT22;29763;50.904;5.530;2023-10-19T04:25:41;14.50;99.90
11067;DHT22;29763;50.904;5.530;2023-10-19T04:28:06;14.50;99.90
11067;DHT22;29763;50.904;5.530;2023-10-19T04:30:42;14.50;99.90
11067;DHT22;29763;50.904;5.530;2023-10-19T04:33:14;14.50;99.90
11067;DHT22;29763;50.904;5.530;2023-10-19T04:35:42;14.50;99.90
11067;DHT22;29763;50.904;5.530;2023-10-19T04:38:09;14.50;99.90
11067;DHT22;29763;50.904;5.530;2023-10-19T04:40:36;14.50;99.90
11067;DHT22;29763;50.904;5.530;2023-10-19T04:43:09;14.50;99.90
11067;DHT22;29763;50.904;5.530;2023-10-19T04:45:42;14.50;99.90
11067;DHT22;29763;50.904;5.530;2023-10-19T04:48:13;14.50;99.90
11067;DHT22;29763;50.904;5.530;2023-10-19T04:50:39;14.60;99.90
11067;DHT22;29763;50.904;5.530;2023-10-19T04:53:06;14.60;99.90
11067;DHT22;29763;50.904;5.530;2023-10-19T04:55:36;14.60;99.90
11067;DHT22;29763;50.904;5.530;2023-10-19T04:58:02;14.60;99.90
11067;DHT22;29763;50.904;5.530;2023-10-19T05:00:28;14.60;99.90
11067;DHT22;29763;50.904;5.530;2023-10-19T05:02:55;14.60;99.90
11067;DHT22;29763;50.904;5.530;2023-10-19T05:05:20;14.60;99.90
11067;DHT22;29763;50.904;5.530;2023-10-19T05:07:46;14.60;99.90
11067;DHT22;29763;50.904;5.530;2023-10-19T05:10:12;14.60;99.90
11067;DHT22;29763;50.904;5.530;2023-10-19T05:12:41;14.60;99.90
11067;DHT22;29763;50.904;5.530;2023-10-19T05:15:08;14.60;99.90
11067;DHT22;29763;50.904;5.530;2023-10-19T05:17:35;14.60;99.90
11067;DHT22;29763;50.904;5.530;2023-10-19T05:20:02;14.60;99.90
11067;DHT22;29763;50.904;5.530;2023-10-19T05:22:32;14.70;99.90
11067;DHT22;29763;50.904;5.530;2023-10-19T05:24:58;14.70;99.90
11067;DHT22;29763;50.904;5.530;2023-10-19T05:27:26;14.70;99.90
11067;DHT22;29763;50.904;5.530;2023-10-19T05:29:54;14.70;99.90
11067;DHT22;29763;50.904;5.530;2023-10-19T05:32:30;14.70;99.90
11067;DHT22;29763;50.904;5.530;2023-10-19T05:35:04;14.70;99.90
11067;DHT22;29763;50.904;5.530;2023-10-19T05:37:31;14.70;99.90
11067;DHT22;29763;50.904;5.530;2023-10-19T05:40:06;14.80;99.90
11067;DHT22;29763;50.904;5.530;2023-10-19T05:42:39;14.80;99.90
11067;DHT22;29763;50.904;5.530;2023-10-19T05:45:06;14.80;99.90
11067;DHT22;29763;50.904;5.530;2023-10-19T05:47:32;14.70;99.90
11067;DHT22;29763;50.904;5.530;2023-10-19T05:50:04;14.80;99.90
11067;DHT22;29763;50.904;5.530;2023-10-19T05:52:30;14.80;99.90
11067;DHT22;29763;50.904;5.530;2023-10-19T05:54:58;14.80;99.90
11067;DHT22;29763;50.904;5.530;2023-10-19T05:57:25;14.80;99.90
11067;DHT22;29763;50.904;5.530;2023-10-19T05:59:52;14.80;99.90
11067;DHT22;29763;50.904;5.530;2023-10-19T06:02:21;14.80;99.90
11067;DHT22;29763;50.904;5.530;2023-10-19T06:04:47;14.80;99.90
11067;DHT22;29763;50.904;5.530;2023-10-19T06:07:14;14.70;99.90
11067;DHT22;29763;50.904;5.530;2023-10-19T06:09:40;14.70;99.90
11067;DHT22;29763;50.904;5.530;2023-10-19T06:12:08;14.60;99.90
11067;DHT22;29763;50.904;5.530;2023-10-19T06:14:37;14.60;99.90
11067;DHT22;29763;50.904;5.530;2023-10-19T06:17:06;14.50;99.90
11067;DHT22;29763;50.904;5.530;2023-10-19T06:19:31;14.50;99.90
11067;DHT22;29763;50.904;5.530;2023-10-19T06:22:04;14.50;99.90
11067;DHT22;29763;50.904;5.530;2023-10-19T06:24:30;14.50;99.90
11067;DHT22;29763;50.904;5.530;2023-10-19T06:26:55;14.50;99.90
11067;DHT22;29763;50.904;5.530;2023-10-19T06:29:24;14.50;99.90
11067;DHT22;29763;50.904;5.530;2023-10-19T06:31:52;14.50;99.90
11067;DHT22;29763;50.904;5.530;2023-10-19T06:39:54;14.60;99.90
11067;DHT22;29763;50.904;5.530;2023-10-19T06:42:21;14.70;99.90
11067;DHT22;29763;50.904;5.530;2023-10-19T06:44:50;14.70;99.90
11067;DHT22;29763;50.904;5.530;2023-10-19T06:47:19;14.80;99.90
11067;DHT22;29763;50.904;5.530;2023-10-19T06:49:48;14.80;99.90
11067;DHT22;29763;50.904;5.530;2023-10-19T06:52:15;14.80;99.90
11067;DHT22;29763;50.904;5.530;2023-10-19T06:54:42;14.80;99.90
11067;DHT22;29763;50.904;5.530;2023-10-19T06:57:12;14.90;99.90
11067;DHT22;29763;50.904;5.530;2023-10-19T06:59:49;14.90;99.90
11067;DHT22;29763;50.904;5.530;2023-10-19T07:02:17;14.90;99.90
11067;DHT22;29763;50.904;5.530;2023-10-19T07:04:46;14.90;99.90
11067;DHT22;29763;50.904;5.530;2023-10-19T07:07:13;14.90;99.90
11067;DHT22;29763;50.904;5.530;2023-10-19T07:09:39;14.90;99.90
11067;DHT22;29763;50.904;5.530;2023-10-19T07:12:07;15.00;99.90
11067;DHT22;29763;50.904;5.530;2023-10-19T07:14:33;15.00;99.90
11067;DHT22;29763;50.904;5.530;2023-10-19T07:17:00;15.00;99.90
11067;DHT22;29763;50.904;5.530;2023-10-19T07:19:25;15.00;99.90
11067;DHT22;29763;50.904;5.530;2023-10-19T07:21:52;15.00;99.90
11067;DHT22;29763;50.904;5.530;2023-10-19T07:24:24;15.10;99.90
11067;DHT22;29763;50.904;5.530;2023-10-19T07:26:50;15.20;99.90
11067;DHT22;29763;50.904;5.530;2023-10-19T07:29:26;15.20;99.90
11067;DHT22;29763;50.904;5.530;2023-10-19T07:31:58;15.30;99.90
11067;DHT22;29763;50.904;5.530;2023-10-19T07:34:24;15.30;99.90
11067;DHT22;29763;50.904;5.530;2023-10-19T07:36:54;15.40;99.90
11067;DHT22;29763;50.904;5.530;2023-10-19T07:39:20;15.50;99.90
11067;DHT22;29763;50.904;5.530;2023-10-19T07:41:48;15.60;99.90
11067;DHT22;29763;50.904;5.530;2023-10-19T07:44:16;15.70;99.90
11067;DHT22;29763;50.904;5.530;2023-10-19T07:46:44;15.80;99.90
11067;DHT22;29763;50.904;5.530;2023-10-19T07:49:10;15.90;99.90
11067;DHT22;29763;50.904;5.530;2023-10-19T07:51:46;16.10;99.90
11067;DHT22;29763;50.904;5.530;2023-10-19T07:54:13;16.20;99.90
11067;DHT22;29763;50.904;5.530;2023-10-19T07:56:39;16.20;99.90
11067;DHT22;29763;50.904;5.530;2023-10-19T07:59:05;16.10;99.90
11067;DHT22;29763;50.904;5.530;2023-10-19T08:01:32;16.00;99.90
11067;DHT22;29763;50.904;5.530;2023-10-19T08:03:58;16.00;99.90
11067;DHT22;29763;50.904;5.530;2023-10-19T08:06:26;16.10;99.90
11067;DHT22;29763;50.904;5.530;2023-10-19T08:08:52;16.40;99.90
11067;DHT22;29763;50.904;5.530;2023-10-19T08:11:18;16.40;99.90
11067;DHT22;29763;50.904;5.530;2023-10-19T08:13:44;16.50;99.90
11067;DHT22;29763;50.904;5.530;2023-10-19T08:16:09;16.60;99.90
11067;DHT22;29763;50.904;5.530;2023-10-19T08:18:37;16.60;99.90
11067;DHT22;29763;50.904;5.530;2023-10-19T08:21:04;16.60;99.90
11067;DHT22;29763;50.904;5.530;2023-10-19T08:23:30;16.70;99.90
11067;DHT22;29763;50.904;5.530;2023-10-19T08:25:57;16.80;99.90
11067;DHT22;29763;50.904;5.530;2023-10-19T08:28:24;16.80;99.90
11067;DHT22;29763;50.904;5.530;2023-10-19T08:30:50;16.90;99.90
11067;DHT22;29763;50.904;5.530;2023-10-19T08:33:28;16.90;99.90
11067;DHT22;29763;50.904;5.530;2023-10-19T08:35:56;16.80;99.90
11067;DHT22;29763;50.904;5.530;2023-10-19T08:38:25;16.80;99.90
11067;DHT22;29763;50.904;5.530;2023-10-19T08:40:53;16.90;99.90
11067;DHT22;29763;50.904;5.530;2023-10-19T08:43:19;17.00;99.90
11067;DHT22;29763;50.904;5.530;2023-10-19T08:45:48;17.20;99.90
11067;DHT22;29763;50.904;5.530;2023-10-19T08:48:14;17.40;99.90
11067;DHT22;29763;50.904;5.530;2023-10-19T08:50:40;17.50;99.90
11067;DHT22;29763;50.904;5.530;2023-10-19T08:53:08;17.60;99.90
11067;DHT22;29763;50.904;5.530;2023-10-19T08:55:34;17.60;99.90
11067;DHT22;29763;50.904;5.530;2023-10-19T08:58:03;17.70;99.90
11067;DHT22;29763;50.904;5.530;2023-10-19T09:03:14;18.00;99.90
11067;DHT22;29763;50.904;5.530;2023-10-19T09:05:42;18.00;99.90
11067;DHT22;29763;50.904;5.530;2023-10-19T09:08:07;18.00;99.90
11067;DHT22;29763;50.904;5.530;2023-10-19T09:10:35;18.10;99.90
11067;DHT22;29763;50.904;5.530;2023-10-19T09:13:02;18.10;99.90
11067;DHT22;29763;50.904;5.530;2023-10-19T09:15:29;18.20;99.90
11067;DHT22;29763;50.904;5.530;2023-10-19T09:18:19;18.20;99.90
11067;DHT22;29763;50.904;5.530;2023-10-19T09:20:47;18.20;99.90
11067;DHT22;29763;50.904;5.530;2023-10-19T09:23:42;18.20;99.90
11067;DHT22;29763;50.904;5.530;2023-10-19T09:26:08;18.30;99.90
11067;DHT22;29763;50.904;5.530;2023-10-19T09:28:36;18.30;99.90
11067;DHT22;29763;50.904;5.530;2023-10-19T09:31:02;18.40;99.90
11067;DHT22;29763;50.904;5.530;2023-10-19T09:33:28;18.40;99.90
11067;DHT22;29763;50.904;5.530;2023-10-19T09:35:57;18.40;99.90
11067;DHT22;29763;50.904;5.530;2023-10-19T09:38:26;18.40;99.90
11067;DHT22;29763;50.904;5.530;2023-10-19T09:40:54;18.40;99.90
11067;DHT22;29763;50.904;5.530;2023-10-19T09:43:46;18.40;99.90
11067;DHT22;29763;50.904;5.530;2023-10-19T09:46:15;18.50;99.90
11067;DHT22;29763;50.904;5.530;2023-10-19T09:48:45;18.40;99.90
11067;DHT22;29763;50.904;5.530;2023-10-19T09:51:12;18.60;99.90
11067;DHT22;29763;50.904;5.530;2023-10-19T09:53:39;18.70;99.90
11067;DHT22;29763;50.904;5.530;2023-10-19T09:56:19;18.80;99.90
11067;DHT22;29763;50.904;5.530;2023-10-19T09:58:51;19.00;99.90
11067;DHT22;29763;50.904;5.530;2023-10-19T10:01:19;19.30;99.90
11067;DHT22;29763;50.904;5.530;2023-10-19T10:03:54;19.30;99.90
11067;DHT22;29763;50.904;5.530;2023-10-19T10:09:20;19.70;99.90
11067;DHT22;29763;50.904;5.530;2023-10-19T10:11:51;19.90;99.90
11067;DHT22;29763;50.904;5.530;2023-10-19T10:14:25;19.90;99.90
11067;DHT22;29763;50.904;5.530;2023-10-19T10:17:04;20.00;99.90
11067;DHT22;29763;50.904;5.530;2023-10-19T10:19:31;20.30;99.90
11067;DHT22;29763;50.904;5.530;2023-10-19T10:22:07;20.30;99.90
11067;DHT22;29763;50.904;5.530;2023-10-19T10:24:42;20.10;99.90
11067;DHT22;29763;50.904;5.530;2023-10-19T10:27:09;20.10;99.90
11067;DHT22;29763;50.904;5.530;2023-10-19T10:29:36;19.90;99.90
11067;DHT22;29763;50.904;5.530;2023-10-19T10:32:02;19.80;99.90
11067;DHT22;29763;50.904;5.530;2023-10-19T10:37:08;19.70;99.90
11067;DHT22;29763;50.904;5.530;2023-10-19T10:39:35;19.60;99.90
11067;DHT22;29763;50.904;5.530;2023-10-19T10:42:07;19.70;99.90
11067;DHT22;29763;50.904;5.530;2023-10-19T10:44:45;19.60;99.90
11067;DHT22;29763;50.904;5.530;2023-10-19T10:47:19;19.90;99.90
11067;DHT22;29763;50.904;5.530;2023-10-19T10:49:59;20.10;99.90
11067;DHT22;29763;50.904;5.530;2023-10-19T10:52:33;20.70;99.90
11067;DHT22;29763;50.904;5.530;2023-10-19T10:55:10;21.00;99.90
11067;DHT22;29763;50.904;5.530;2023-10-19T10:57:37;21.00;99.90
11067;DHT22;29763;50.904;5.530;2023-10-19T11:00:08;20.80;99.90
11067;DHT22;29763;50.904;5.530;2023-10-19T11:02:36;20.60;99.90
11067;DHT22;29763;50.904;5.530;2023-10-19T11:05:06;20.40;99.90
11067;DHT22;29763;50.904;5.530;2023-10-19T11:07:40;20.40;99.90
11067;DHT22;29763;50.904;5.530;2023-10-19T11:10:06;20.60;99.90
11067;DHT22;29763;50.904;5.530;2023-10-19T11:12:35;20.70;99.90
11067;DHT22;29763;50.904;5.530;2023-10-19T11:15:01;20.90;99.90
11067;DHT22;29763;50.904;5.530;2023-10-19T11:17:42;21.00;99.90
11067;DHT22;29763;50.904;5.530;2023-10-19T11:20:09;21.20;99.90
11067;DHT22;29763;50.904;5.530;2023-10-19T11:22:48;21.40;99.90
11067;DHT22;29763;50.904;5.530;2023-10-19T11:25:30;21.10;99.90
11067;DHT22;29763;50.904;5.530;2023-10-19T11:27:58;21.30;99.90
11067;DHT22;29763;50.904;5.530;2023-10-19T11:30:28;21.10;99.90
11067;DHT22;29763;50.904;5.530;2023-10-19T11:32:55;21.20;99.90
11067;DHT22;29763;50.904;5.530;2023-10-19T11:35:29;20.90;99.90
11067;DHT22;29763;50.904;5.530;2023-10-19T11:37:57;20.60;99.90
11067;DHT22;29763;50.904;5.530;2023-10-19T11:40:24;20.60;99.90
11067;DHT22;29763;50.904;5.530;2023-10-19T11:42:56;20.40;99.90
11067;DHT22;29763;50.904;5.530;2023-10-19T11:45:22;20.40;99.90
11067;DHT22;29763;50.904;5.530;2023-10-19T11:47:52;20.40;99.90
11067;DHT22;29763;50.904;5.530;2023-10-19T11:50:18;20.30;99.90
11067;DHT22;29763;50.904;5.530;2023-10-19T11:52:45;20.10;99.90
11067;DHT22;29763;50.904;5.530;2023-10-19T11:55:13;20.00;99.90
11067;DHT22;29763;50.904;5.530;2023-10-19T11:57:40;20.00;99.90
11067;DHT22;29763;50.904;5.530;2023-10-19T12:00:07;19.90;99.90
11067;DHT22;29763;50.904;5.530;2023-10-19T12:02:39;19.80;99.90
11067;DHT22;29763;50.904;5.530;2023-10-19T12:05:07;19.60;99.90
11067;DHT22;29763;50.904;5.530;2023-10-19T12:07:39;19.40;99.90
11067;DHT22;29763;50.904;5.530;2023-10-19T12:10:09;19.30;99.90
11067;DHT22;29763;50.904;5.530;2023-10-19T12:12:37;19.30;99.90
11067;DHT22;29763;50.904;5.530;2023-10-19T12:15:06;19.10;99.90
11067;DHT22;29763;50.904;5.530;2023-10-19T12:17:32;19.00;99.90
11067;DHT22;29763;50.904;5.530;2023-10-19T12:20:01;19.00;99.90
11067;DHT22;29763;50.904;5.530;2023-10-19T12:22:31;19.00;99.90
11067;DHT22;29763;50.904;5.530;2023-10-19T12:25:04;18.90;99.90
11067;DHT22;29763;50.904;5.530;2023-10-19T12:27:31;18.90;99.90
11067;DHT22;29763;50.904;5.530;2023-10-19T12:30:15;18.90;99.90
11067;DHT22;29763;50.904;5.530;2023-10-19T12:32:50;18.90;99.90
11067;DHT22;29763;50.904;5.530;2023-10-19T12:35:18;18.80;99.90
11067;DHT22;29763;50.904;5.530;2023-10-19T12:37:55;18.70;99.90
11067;DHT22;29763;50.904;5.530;2023-10-19T12:40:22;18.50;99.90
11067;DHT22;29763;50.904;5.530;2023-10-19T12:43:00;18.40;99.90
11067;DHT22;29763;50.904;5.530;2023-10-19T12:45:29;18.20;99.90
11067;DHT22;29763;50.904;5.530;2023-10-19T12:47:56;17.90;99.90
11067;DHT22;29763;50.904;5.530;2023-10-19T12:50:23;17.80;99.90
11067;DHT22;29763;50.904;5.530;2023-10-19T12:52:53;17.80;99.90
11067;DHT22;29763;50.904;5.530;2023-10-19T12:55:21;17.70;99.90
11067;DHT22;29763;50.904;5.530;2023-10-19T12:57:47;17.70;99.90
11067;DHT22;29763;50.904;5.530;2023-10-19T13:00:15;17.60;99.90
11067;DHT22;29763;50.904;5.530;2023-10-19T13:03:02;17.60;99.90
11067;DHT22;29763;50.904;5.530;2023-10-19T13:05:34;17.50;99.90
11067;DHT22;29763;50.904;5.530;2023-10-19T13:08:02;17.40;99.90
11067;DHT22;29763;50.904;5.530;2023-10-19T13:10:32;17.40;99.90
11067;DHT22;29763;50.904;5.530;2023-10-19T13:13:02;17.40;99.90
11067;DHT22;29763;50.904;5.530;2023-10-19T13:15:34;17.30;99.90
11067;DHT22;29763;50.904;5.530;2023-10-19T13:18:06;17.30;99.90
11067;DHT22;29763;50.904;5.530;2023-10-19T13:20:34;17.40;99.90
11067;DHT22;29763;50.904;5.530;2023-10-19T13:23:01;17.50;99.90
11067;DHT22;29763;50.904;5.530;2023-10-19T13:25:32;17.50;99.90
11067;DHT22;29763;50.904;5.530;2023-10-19T13:28:12;17.50;99.90
11067;DHT22;29763;50.904;5.530;2023-10-19T13:30:42;17.50;99.90
11067;DHT22;29763;50.904;5.530;2023-10-19T13:33:10;17.30;99.90
11067;DHT22;29763;50.904;5.530;2023-10-19T13:35:40;17.20;99.90
11067;DHT22;29763;50.904;5.530;2023-10-19T13:38:08;17.10;99.90
11067;DHT22;29763;50.904;5.530;2023-10-19T13:40:40;17.10;99.90
11067;DHT22;29763;50.904;5.530;2023-10-19T13:43:08;17.10;99.90
11067;DHT22;29763;50.904;5.530;2023-10-19T13:45:36;17.20;99.90
11067;DHT22;29763;50.904;5.530;2023-10-19T13:48:03;17.20;99.90
11067;DHT22;29763;50.904;5.530;2023-10-19T13:50:33;17.30;99.90
11067;DHT22;29763;50.904;5.530;2023-10-19T13:52:59;17.30;99.90
11067;DHT22;29763;50.904;5.530;2023-10-19T13:55:30;17.30;99.90
11067;DHT22;29763;50.904;5.530;2023-10-19T13:57:57;17.40;99.90
11067;DHT22;29763;50.904;5.530;2023-10-19T14:00:24;17.60;99.90
11067;DHT22;29763;50.904;5.530;2023-10-19T14:03:11;17.50;99.90
11067;DHT22;29763;50.904;5.530;2023-10-19T14:05:43;17.70;99.90
11067;DHT22;29763;50.904;5.530;2023-10-19T14:08:13;17.90;99.90
11067;DHT22;29763;50.904;5.530;2023-10-19T14:10:39;18.20;99.90
11067;DHT22;29763;50.904;5.530;2023-10-19T14:13:07;18.40;99.90
11067;DHT22;29763;50.904;5.530;2023-10-19T14:15:34;18.60;99.90
11067;DHT22;29763;50.904;5.530;2023-10-19T14:18:00;18.60;99.90
11067;DHT22;29763;50.904;5.530;2023-10-19T14:20:29;18.80;99.90
11067;DHT22;29763;50.904;5.530;2023-10-19T14:22:54;18.70;99.90
11067;DHT22;29763;50.904;5.530;2023-10-19T14:25:24;18.50;99.90
11067;DHT22;29763;50.904;5.530;2023-10-19T14:27:51;18.20;99.90
11067;DHT22;29763;50.904;5.530;2023-10-19T14:30:22;18.00;99.90
11067;DHT22;29763;50.904;5.530;2023-10-19T14:32:49;17.90;99.90
11067;DHT22;29763;50.904;5.530;2023-10-19T14:35:17;17.90;99.90
11067;DHT22;29763;50.904;5.530;2023-10-19T14:37:44;17.90;99.90
11067;DHT22;29763;50.904;5.530;2023-10-19T14:40:15;17.80;99.90
11067;DHT22;29763;50.904;5.530;2023-10-19T14:42:44;17.90;99.90
11067;DHT22;29763;50.904;5.530;2023-10-19T14:45:11;18.00;99.90
11067;DHT22;29763;50.904;5.530;2023-10-19T14:47:40;18.20;99.90
11067;DHT22;29763;50.904;5.530;2023-10-19T14:50:16;18.30;99.90
11067;DHT22;29763;50.904;5.530;2023-10-19T14:52:46;18.30;99.90
11067;DHT22;29763;50.904;5.530;2023-10-19T14:55:13;18.30;99.90
11067;DHT22;29763;50.904;5.530;2023-10-19T14:57:42;18.30;99.90
11067;DHT22;29763;50.904;5.530;2023-10-19T15:00:09;18.10;99.90
11067;DHT22;29763;50.904;5.530;2023-10-19T15:02:53;18.10;99.90
11067;DHT22;29763;50.904;5.530;2023-10-19T15:05:27;18.30;99.90
11067;DHT22;29763;50.904;5.530;2023-10-19T15:07:54;18.40;99.90
11067;DHT22;29763;50.904;5.530;2023-10-19T15:10:24;18.40;99.90
11067;DHT22;29763;50.904;5.530;2023-10-19T15:12:51;18.60;99.90
11067;DHT22;29763;50.904;5.530;2023-10-19T15:15:18;18.60;99.90
11067;DHT22;29763;50.904;5.530;2023-10-19T15:17:44;18.70;99.90
11067;DHT22;29763;50.904;5.530;2023-10-19T15:20:13;18.70;99.90
11067;DHT22;29763;50.904;5.530;2023-10-19T15:22:41;18.90;99.90
11067;DHT22;29763;50.904;5.530;2023-10-19T15:25:07;18.80;99.90
11067;DHT22;29763;50.904;5.530;2023-10-19T15:27:36;18.80;99.90
11067;DHT22;29763;50.904;5.530;2023-10-19T15:30:03;18.70;99.90
11067;DHT22;29763;50.904;5.530;2023-10-19T15:32:31;18.70;99.90
11067;DHT22;29763;50.904;5.530;2023-10-19T15:34:57;18.70;99.90
11067;DHT22;29763;50.904;5.530;2023-10-19T15:37:23;18.60;99.90
11067;DHT22;29763;50.904;5.530;2023-10-19T15:39:50;18.60;99.90
11067;DHT22;29763;50.904;5.530;2023-10-19T15:42:17;18.60;99.90
11067;DHT22;29763;50.904;5.530;2023-10-19T15:44:44;18.60;99.90
11067;DHT22;29763;50.904;5.530;2023-10-19T15:47:11;18.50;99.90
11067;DHT22;29763;50.904;5.530;2023-10-19T15:49:50;18.40;99.90
11067;DHT22;29763;50.904;5.530;2023-10-19T15:52:25;18.20;99.90
11067;DHT22;29763;50.904;5.530;2023-10-19T15:54:52;18.00;99.90
11067;DHT22;29763;50.904;5.530;2023-10-19T15:57:18;17.80;99.90
11067;DHT22;29763;50.904;5.530;2023-10-19T15:59:45;17.80;99.90
11067;DHT22;29763;50.904;5.530;2023-10-19T16:02:14;17.70;99.90